Time;durP1;ratioP1;P1;durP2;ratioP2;P2;SDS_P1;SDS_P2;PMS_P1;PMS_P2;Temp;Humidity;BMP_temperature;BMP_pressure;BME280_temperature;BME280_humidity;BME280_pressure;Samples;Min_cycle;Max_cycle;Signal;HPM_P1;HPM_P2
2024/04/17 00:00:48;;;;;;;5.50;5.00;;;11.90;99.90;;;;;;5417023;26;20220;-64
2024/04/17 00:03:14;;;;;;;6.50;5.73;;;11.80;99.90;;;;;;5416289;26;20614;-63
2024/04/17 00:05:40;;;;;;;5.53;5.03;;;11.80;99.90;;;;;;5416974;26;20278;-63
2024/04/17 00:08:06;;;;;;;7.43;4.90;;;11.80;99.90;;;;;;5416041;26;20446;-63
2024/04/17 00:10:32;;;;;;;6.10;4.77;;;11.80;99.90;;;;;;5416714;26;20241;-63
2024/04/17 00:12:57;;;;;;;6.97;4.80;;;11.80;99.90;;;;;;5415985;26;20481;-63
2024/04/17 00:15:23;;;;;;;4.07;3.63;;;11.70;99.90;;;;;;5416572;26;20316;-64
2024/04/17 00:17:49;;;;;;;4.70;4.27;;;11.70;99.90;;;;;;5416224;26;20270;-64
2024/04/17 00:20:15;;;;;;;6.47;4.57;;;11.70;99.90;;;;;;5416021;26;20229;-63
2024/04/17 00:22:40;;;;;;;5.50;4.50;;;11.60;99.90;;;;;;5385008;26;20436;-64
2024/04/17 00:25:06;;;;;;;6.10;4.70;;;11.60;99.90;;;;;;5415709;26;20277;-63
2024/04/17 00:27:32;;;;;;;7.30;4.70;;;11.50;99.90;;;;;;5416479;26;20264;-63
2024/04/17 00:29:58;;;;;;;5.33;4.83;;;11.50;99.90;;;;;;5415965;26;20535;-63
2024/04/17 00:32:23;;;;;;;4.97;4.40;;;11.50;99.90;;;;;;5416354;26;20673;-64
2024/04/17 00:34:49;;;;;;;9.83;5.90;;;11.40;99.90;;;;;;5416359;26;20684;-64
2024/04/17 00:37:15;;;;;;;6.63;4.80;;;11.40;99.90;;;;;;5415778;26;20232;-63
2024/04/17 00:39:40;;;;;;;5.90;4.23;;;11.30;99.90;;;;;;5416411;26;20239;-64
2024/04/17 00:42:06;;;;;;;11.60;5.67;;;11.30;99.90;;;;;;5415397;26;20559;-64
2024/04/17 00:44:32;;;;;;;5.63;4.77;;;11.30;99.90;;;;;;5419825;26;20232;-63
2024/04/17 00:46:58;;;;;;;10.50;5.90;;;11.30;99.90;;;;;;5387308;26;20265;-63
2024/04/17 00:49:23;;;;;;;8.40;4.03;;;11.30;99.90;;;;;;5419810;26;20271;-63
2024/04/17 00:51:50;;;;;;;9.57;6.50;;;11.20;99.90;;;;;;5419660;26;20437;-63
2024/04/17 00:54:17;;;;;;;4.30;3.73;;;11.20;99.90;;;;;;5418610;26;20285;-63
2024/04/17 00:56:43;;;;;;;5.77;4.47;;;11.20;99.90;;;;;;5388091;26;21003;-63
2024/04/17 00:59:10;;;;;;;6.60;4.40;;;11.20;99.90;;;;;;5387365;26;20443;-64
2024/04/17 01:01:35;;;;;;;7.30;4.90;;;11.20;99.90;;;;;;5419557;26;20876;-63
2024/04/17 01:04:01;;;;;;;6.00;4.33;;;11.10;99.90;;;;;;5418778;26;20437;-63
2024/04/17 01:06:28;;;;;;;5.87;4.43;;;11.10;99.90;;;;;;5419550;26;20258;-63
2024/04/17 01:08:53;;;;;;;5.20;4.33;;;11.10;99.90;;;;;;5419399;26;20854;-63
2024/04/17 01:11:19;;;;;;;6.50;4.70;;;11.00;99.90;;;;;;5418371;26;20453;-63
2024/04/17 01:13:45;;;;;;;6.13;4.50;;;11.00;99.90;;;;;;5419467;26;20281;-63
2024/04/17 01:16:10;;;;;;;8.50;5.47;;;11.00;99.90;;;;;;5418376;26;20234;-63
2024/04/17 01:18:41;;;;;;;5.57;5.07;;;10.90;99.90;;;;;;5432729;26;20242;-63
2024/04/17 01:21:07;;;;;;;5.07;4.67;;;10.90;99.90;;;;;;5454617;26;20698;-63
2024/04/17 01:23:32;;;;;;;8.00;5.33;;;10.80;99.90;;;;;;5455094;26;20500;-63
2024/04/17 01:25:58;;;;;;;6.73;5.00;;;10.80;99.90;;;;;;5454636;26;20253;-63
2024/04/17 01:28:24;;;;;;;7.70;5.50;;;10.80;99.90;;;;;;5455118;26;20694;-64
2024/04/17 01:30:49;;;;;;;7.10;5.70;;;10.80;99.90;;;;;;5454987;26;20258;-64
2024/04/17 01:33:15;;;;;;;9.27;6.03;;;10.80;99.90;;;;;;5454328;26;20218;-63
2024/04/17 01:35:41;;;;;;;11.03;6.37;;;10.70;99.90;;;;;;5454944;26;20318;-64
2024/04/17 01:38:07;;;;;;;14.67;8.00;;;10.70;99.90;;;;;;5453959;26;20218;-64
2024/04/17 01:40:32;;;;;;;11.80;9.20;;;10.70;99.90;;;;;;5423384;26;20291;-64
2024/04/17 01:42:58;;;;;;;11.27;8.20;;;10.60;99.90;;;;;;5454934;26;20222;-64
2024/04/17 01:45:24;;;;;;;12.20;6.87;;;10.60;99.90;;;;;;5454806;26;20222;-64
2024/04/17 01:47:50;;;;;;;12.60;9.37;;;10.60;99.90;;;;;;5393501;26;20539;-64
2024/04/17 01:50:28;;;;;;;9.53;8.17;;;10.60;99.90;;;;;;5453895;26;20869;-64
2024/04/17 01:52:53;;;;;;;11.10;8.70;;;10.60;99.90;;;;;;5454474;26;20267;-63
2024/04/17 01:55:19;;;;;;;9.53;7.90;;;10.60;99.90;;;;;;5452700;26;21002;-64
2024/04/17 01:57:45;;;;;;;8.57;6.80;;;10.50;99.90;;;;;;5454727;26;20225;-63
2024/04/17 02:00:11;;;;;;;8.53;7.40;;;10.40;99.90;;;;;;5454130;26;20214;-63
2024/04/17 02:02:36;;;;;;;8.57;7.00;;;10.40;99.90;;;;;;5454498;26;20661;-63
2024/04/17 02:05:02;;;;;;;7.23;5.93;;;10.40;99.90;;;;;;5454006;26;20443;-63
2024/04/17 02:07:28;;;;;;;9.00;7.73;;;10.30;99.90;;;;;;5422904;26;20378;-63
2024/04/17 02:09:55;;;;;;;7.43;5.60;;;10.30;99.90;;;;;;5454508;26;20570;-63
2024/04/17 02:12:21;;;;;;;10.10;6.57;;;10.20;99.90;;;;;;5453924;26;20222;-63
2024/04/17 02:14:46;;;;;;;9.23;6.80;;;10.20;99.90;;;;;;5454368;26;20557;-63
2024/04/17 02:17:12;;;;;;;9.00;6.60;;;10.20;99.90;;;;;;5452843;26;20319;-63
2024/04/17 02:19:38;;;;;;;6.83;6.23;;;10.10;99.90;;;;;;5453842;26;20355;-63
2024/04/17 02:22:04;;;;;;;8.10;5.77;;;10.00;99.90;;;;;;5453276;26;20231;-63
2024/04/17 02:24:29;;;;;;;7.17;5.53;;;10.00;99.90;;;;;;5454183;26;20281;-63
2024/04/17 02:26:55;;;;;;;8.93;5.30;;;9.90;99.90;;;;;;5454071;26;20283;-63
2024/04/17 02:29:21;;;;;;;8.87;7.97;;;9.90;99.90;;;;;;5453300;26;20511;-63
2024/04/17 02:31:46;;;;;;;7.57;5.53;;;9.90;99.90;;;;;;5454132;26;20229;-63
2024/04/17 02:34:13;;;;;;;7.60;6.10;;;9.80;99.90;;;;;;5453108;26;20286;-62
2024/04/17 02:36:39;;;;;;;8.13;7.40;;;9.80;99.90;;;;;;5454054;26;20683;-62
2024/04/17 02:39:05;;;;;;;10.23;6.93;;;9.80;99.90;;;;;;5438816;26;20533;-63
2024/04/17 02:41:31;;;;;;;5.73;5.13;;;9.70;99.90;;;;;;5453609;26;20269;-63
2024/04/17 02:43:56;;;;;;;8.60;5.27;;;9.70;99.90;;;;;;5453827;26;20345;-63
2024/04/17 02:46:22;;;;;;;11.13;8.07;;;9.70;99.90;;;;;;5453298;26;20528;-63
2024/04/17 02:48:48;;;;;;;9.30;6.93;;;9.70;99.90;;;;;;5453125;26;20244;-63
2024/04/17 02:51:13;;;;;;;8.10;5.50;;;9.60;99.90;;;;;;5453028;26;20220;-63
2024/04/17 02:53:39;;;;;;;9.50;8.70;;;9.60;99.90;;;;;;5453584;26;20727;-63
2024/04/17 02:56:05;;;;;;;10.23;8.30;;;9.60;99.90;;;;;;5452473;26;20335;-62
2024/04/17 02:58:31;;;;;;;9.60;6.50;;;9.60;99.90;;;;;;5453781;26;20721;-63
2024/04/17 03:00:57;;;;;;;9.10;8.30;;;9.60;99.90;;;;;;5453443;26;20556;-63
2024/04/17 03:03:22;;;;;;;9.30;7.83;;;9.60;99.90;;;;;;5453144;26;20756;-63
2024/04/17 03:05:48;;;;;;;7.30;6.60;;;9.60;99.90;;;;;;5453376;26;20733;-64
2024/04/17 03:08:14;;;;;;;9.03;6.63;;;9.50;99.90;;;;;;5452651;26;20344;-63
2024/04/17 03:10:39;;;;;;;8.83;7.17;;;9.50;99.90;;;;;;5453429;26;20291;-63
2024/04/17 03:13:05;;;;;;;11.70;8.70;;;9.60;99.90;;;;;;5452742;26;20228;-62
2024/04/17 03:15:34;;;;;;;15.50;9.17;;;9.60;99.90;;;;;;5422034;26;20569;-63
2024/04/17 03:18:00;;;;;;;9.20;8.13;;;9.60;99.90;;;;;;5452534;26;20243;-63
2024/04/17 03:20:26;;;;;;;13.40;8.70;;;9.70;99.90;;;;;;5421061;26;20557;-63
2024/04/17 03:22:52;;;;;;;11.20;8.60;;;9.70;99.90;;;;;;5421643;26;20231;-63
2024/04/17 03:25:17;;;;;;;12.60;8.60;;;9.70;99.90;;;;;;5452310;26;20296;-63
2024/04/17 03:27:43;;;;;;;12.60;8.87;;;9.70;99.90;;;;;;5453094;26;20236;-63
2024/04/17 03:30:09;;;;;;;9.27;7.50;;;9.60;99.90;;;;;;5452813;26;20249;-62
2024/04/17 03:32:35;;;;;;;11.50;8.73;;;9.60;99.90;;;;;;5453057;26;20587;-63
2024/04/17 03:35:01;;;;;;;12.23;11.00;;;9.60;99.90;;;;;;5452933;26;20438;-62
2024/04/17 03:37:26;;;;;;;9.20;8.30;;;9.60;99.90;;;;;;5452274;26;20229;-63
2024/04/17 03:39:52;;;;;;;14.57;9.47;;;9.60;99.90;;;;;;5421092;26;20241;-63
2024/04/17 03:42:18;;;;;;;9.23;8.10;;;9.60;99.90;;;;;;5451207;26;20240;-62
2024/04/17 03:44:49;;;;;;;12.80;10.00;;;9.60;99.90;;;;;;5452369;26;20228;-63
2024/04/17 03:47:15;;;;;;;13.63;10.80;;;9.60;99.90;;;;;;5452124;26;20225;-63
2024/04/17 03:49:41;;;;;;;17.60;10.17;;;9.60;99.90;;;;;;5420985;26;20490;-63
2024/04/17 03:52:07;;;;;;;11.30;10.10;;;9.60;99.90;;;;;;5420528;26;20283;-61
2024/04/17 03:54:32;;;;;;;12.13;10.40;;;9.50;99.90;;;;;;5452714;26;20216;-63
2024/04/17 03:56:58;;;;;;;12.00;9.23;;;9.50;99.90;;;;;;5452854;26;20281;-63
2024/04/17 03:59:24;;;;;;;10.10;8.70;;;9.50;99.90;;;;;;5451558;26;20236;-62
2024/04/17 04:01:49;;;;;;;16.33;11.03;;;9.60;99.90;;;;;;5451980;26;20232;-64
2024/04/17 04:04:15;;;;;;;17.13;11.30;;;9.50;99.90;;;;;;5420647;26;20236;-62
2024/04/17 04:06:41;;;;;;;11.63;10.00;;;9.60;99.90;;;;;;5452851;26;20224;-63
2024/04/17 04:09:07;;;;;;;13.27;11.90;;;9.60;99.90;;;;;;5451393;26;20231;-62
2024/04/17 04:11:33;;;;;;;16.33;11.40;;;9.60;99.90;;;;;;5452246;26;20231;-63
2024/04/17 04:13:58;;;;;;;13.47;11.50;;;9.60;99.90;;;;;;5452743;26;20429;-63
2024/04/17 04:16:26;;;;;;;13.20;10.80;;;9.60;99.90;;;;;;5451574;26;20630;-63
2024/04/17 04:18:51;;;;;;;13.07;11.80;;;9.60;99.90;;;;;;5433816;26;20569;-63
2024/04/17 04:21:17;;;;;;;14.30;10.50;;;9.60;99.90;;;;;;5385110;26;20437;-63
2024/04/17 04:23:47;;;;;;;14.93;10.40;;;9.60;99.90;;;;;;5415641;26;20307;-62
2024/04/17 04:26:13;;;;;;;16.10;10.33;;;9.60;99.90;;;;;;5414484;26;20300;-62
2024/04/17 04:28:39;;;;;;;12.97;10.73;;;9.60;99.90;;;;;;5416015;26;20447;-62
2024/04/17 04:31:05;;;;;;;13.23;11.50;;;9.60;99.90;;;;;;5416446;26;20713;-62
2024/04/17 04:33:31;;;;;;;14.10;12.13;;;9.60;99.90;;;;;;5415874;26;20567;-63
2024/04/17 04:35:56;;;;;;;19.63;12.30;;;9.60;99.90;;;;;;5416094;26;20243;-62
2024/04/17 04:38:23;;;;;;;14.80;12.53;;;9.60;99.90;;;;;;5415117;26;20268;-62
2024/04/17 04:40:49;;;;;;;17.43;12.90;;;9.60;99.90;;;;;;5416279;26;20697;-62
2024/04/17 04:43:15;;;;;;;13.83;11.30;;;9.60;99.90;;;;;;5415565;26;20567;-63
2024/04/17 04:45:41;;;;;;;12.77;10.93;;;9.60;99.90;;;;;;5415669;26;20488;-62
2024/04/17 04:48:07;;;;;;;15.23;12.20;;;9.60;99.90;;;;;;5415904;26;20450;-61
2024/04/17 04:50:33;;;;;;;16.80;12.40;;;9.60;99.90;;;;;;5414539;26;20242;-61
2024/04/17 04:52:59;;;;;;;14.10;12.60;;;9.60;99.90;;;;;;5415038;26;20443;-61
2024/04/17 04:55:24;;;;;;;14.60;13.17;;;9.60;99.90;;;;;;5414257;26;20436;-61
2024/04/17 04:57:50;;;;;;;17.07;15.37;;;9.60;99.90;;;;;;5415226;26;20280;-62
2024/04/17 05:00:16;;;;;;;16.53;14.27;;;9.70;99.90;;;;;;5383370;26;20265;-61
2024/04/17 05:02:42;;;;;;;15.53;12.00;;;9.70;99.90;;;;;;5415746;26;20570;-62
2024/04/17 05:05:08;;;;;;;16.30;13.10;;;9.70;99.90;;;;;;5415898;26;20448;-61
2024/04/17 05:07:35;;;;;;;18.17;11.70;;;9.60;99.90;;;;;;5384128;26;20635;-61
2024/04/17 05:10:01;;;;;;;17.80;11.70;;;9.60;99.90;;;;;;5384602;26;20611;-62
2024/04/17 05:12:27;;;;;;;18.30;11.90;;;9.60;99.90;;;;;;5415163;26;20495;-61
2024/04/17 05:14:53;;;;;;;19.13;14.13;;;9.60;99.90;;;;;;5415821;26;20432;-61
2024/04/17 05:17:18;;;;;;;18.10;12.87;;;9.60;99.90;;;;;;5414904;26;20448;-61
2024/04/17 05:19:44;;;;;;;16.70;12.20;;;9.60;99.90;;;;;;5416037;26;20589;-62
2024/04/17 05:22:10;;;;;;;12.90;11.53;;;9.60;99.90;;;;;;5415896;26;20238;-61
2024/04/17 05:24:35;;;;;;;16.20;11.43;;;9.60;99.90;;;;;;5414825;26;20280;-61
2024/04/17 05:27:01;;;;;;;17.60;11.33;;;9.60;99.90;;;;;;5415656;26;20609;-61
2024/04/17 05:29:27;;;;;;;16.63;11.10;;;9.50;99.90;;;;;;5416714;26;20309;-62
2024/04/17 05:31:52;;;;;;;16.07;11.90;;;9.50;99.90;;;;;;5387841;26;20558;-61
2024/04/17 05:34:18;;;;;;;12.63;11.20;;;9.50;99.90;;;;;;5418174;26;20280;-62
2024/04/17 05:36:44;;;;;;;24.13;12.20;;;9.50;99.90;;;;;;5419105;26;20733;-61
2024/04/17 05:39:10;;;;;;;14.50;10.73;;;9.50;99.90;;;;;;5387626;26;20398;-61
2024/04/17 05:41:36;;;;;;;15.80;11.50;;;9.50;99.90;;;;;;5417892;26;20225;-61
2024/04/17 05:44:01;;;;;;;14.37;10.73;;;9.50;99.90;;;;;;5386124;26;20451;-62
2024/04/17 05:46:27;;;;;;;16.00;11.30;;;9.50;99.90;;;;;;5386427;26;20694;-61
2024/04/17 05:48:54;;;;;;;17.00;10.77;;;9.50;99.90;;;;;;5418935;26;20426;-61
2024/04/17 05:51:20;;;;;;;16.73;10.70;;;9.50;99.90;;;;;;5418424;26;20440;-62
2024/04/17 05:53:45;;;;;;;15.70;11.57;;;9.50;99.90;;;;;;5418855;26;20799;-61
2024/04/17 05:56:11;;;;;;;12.33;9.50;;;9.40;99.90;;;;;;5418703;26;20936;-61
2024/04/17 05:58:37;;;;;;;12.37;10.80;;;9.40;99.90;;;;;;5418125;26;20217;-61
2024/04/17 06:01:03;;;;;;;12.00;8.13;;;9.40;99.90;;;;;;5418709;26;20269;-61
2024/04/17 06:03:28;;;;;;;10.63;7.70;;;9.50;99.90;;;;;;5417678;26;20235;-62
2024/04/17 06:05:54;;;;;;;16.37;8.20;;;9.50;99.90;;;;;;5418678;26;20220;-61
2024/04/17 06:08:20;;;;;;;12.03;9.03;;;9.50;99.90;;;;;;5418118;26;20222;-62
2024/04/17 06:10:45;;;;;;;11.93;8.33;;;9.50;99.90;;;;;;5418747;26;20258;-61
2024/04/17 06:13:11;;;;;;;9.43;7.97;;;9.50;99.90;;;;;;5418395;26;20578;-61
2024/04/17 06:15:37;;;;;;;11.27;7.27;;;9.50;99.90;;;;;;5418005;26;20547;-61
2024/04/17 06:18:04;;;;;;;13.50;9.03;;;9.60;99.90;;;;;;5423582;26;20237;-61
2024/04/17 06:20:30;;;;;;;11.83;9.53;;;9.50;99.90;;;;;;5453651;26;20266;-62
2024/04/17 06:22:56;;;;;;;14.37;8.83;;;9.60;99.90;;;;;;5454462;26;20436;-61
2024/04/17 06:25:22;;;;;;;14.50;8.77;;;9.60;99.90;;;;;;5453721;26;20440;-62
2024/04/17 06:27:48;;;;;;;8.10;7.03;;;9.60;99.90;;;;;;5454286;26;20604;-61
2024/04/17 06:30:14;;;;;;;14.30;10.90;;;9.70;99.90;;;;;;5454280;26;20501;-62
2024/04/17 06:32:40;;;;;;;7.40;6.60;;;9.70;99.90;;;;;;5452876;26;20452;-62
2024/04/17 06:35:06;;;;;;;9.63;6.83;;;9.70;99.90;;;;;;5454068;26;20255;-62
2024/04/17 06:37:31;;;;;;;12.40;7.60;;;9.80;99.90;;;;;;5453350;26;20530;-62
2024/04/17 06:39:57;;;;;;;9.50;7.77;;;9.80;99.90;;;;;;5453506;26;20691;-61
2024/04/17 06:42:23;;;;;;;11.70;8.17;;;9.80;99.90;;;;;;5453016;26;20218;-61
2024/04/17 06:44:48;;;;;;;12.37;11.10;;;9.80;99.90;;;;;;5453970;26;20224;-62
2024/04/17 06:47:14;;;;;;;16.47;10.00;;;9.90;99.90;;;;;;5429303;26;20612;-61
2024/04/17 06:49:40;;;;;;;11.20;9.80;;;9.90;99.90;;;;;;5451527;26;21140;-62
2024/04/17 06:52:06;;;;;;;15.67;10.83;;;10.00;99.90;;;;;;5421628;26;20320;-62
2024/04/17 06:54:32;;;;;;;14.63;10.50;;;10.00;99.90;;;;;;5451493;26;20329;-62
2024/04/17 06:56:58;;;;;;;17.90;9.13;;;10.00;99.90;;;;;;5453178;26;20228;-62
2024/04/17 06:59:23;;;;;;;11.60;8.10;;;10.00;99.90;;;;;;5452891;26;20275;-62
2024/04/17 07:01:49;;;;;;;15.80;10.50;;;10.00;99.90;;;;;;5453345;26;20487;-62
2024/04/17 07:04:15;;;;;;;13.17;9.53;;;10.00;99.90;;;;;;5453628;26;20236;-62
2024/04/17 07:06:41;;;;;;;17.57;10.50;;;10.00;99.90;;;;;;5421443;26;20719;-62
2024/04/17 07:09:07;;;;;;;11.40;9.27;;;10.00;99.90;;;;;;5452665;26;20281;-62
2024/04/17 07:11:33;;;;;;;12.63;8.90;;;10.00;99.90;;;;;;5452977;26;20978;-62
2024/04/17 07:13:59;;;;;;;10.30;7.70;;;10.00;99.90;;;;;;5453069;26;20875;-62
2024/04/17 07:16:25;;;;;;;7.53;6.40;;;10.00;99.90;;;;;;5420949;26;20553;-62
2024/04/17 07:18:51;;;;;;;7.90;7.10;;;10.10;99.90;;;;;;5435166;26;20487;-62
2024/04/17 07:21:17;;;;;;;6.97;6.23;;;10.00;99.90;;;;;;5417485;26;20309;-62
2024/04/17 07:23:43;;;;;;;9.50;7.57;;;10.10;99.90;;;;;;5416955;26;20274;-62
2024/04/17 07:26:10;;;;;;;8.47;6.50;;;10.00;99.90;;;;;;5417831;26;20440;-62
2024/04/17 07:28:36;;;;;;;8.27;7.57;;;10.00;99.90;;;;;;5416988;26;20434;-62
2024/04/17 07:31:02;;;;;;;9.13;8.00;;;10.00;99.90;;;;;;5385597;26;20864;-62
2024/04/17 07:33:28;;;;;;;8.27;7.47;;;10.00;99.90;;;;;;5416332;26;20335;-62
2024/04/17 07:35:58;;;;;;;9.10;8.30;;;9.90;99.90;;;;;;5416766;26;20453;-62
2024/04/17 07:38:24;;;;;;;8.60;7.83;;;9.90;99.90;;;;;;5384234;26;20496;-62
2024/04/17 07:41:03;;;;;;;11.40;8.33;;;9.90;99.90;;;;;;5417163;26;20789;-62
2024/04/17 07:43:30;;;;;;;8.00;7.30;;;9.90;99.90;;;;;;5416807;26;20452;-62
2024/04/17 07:46:00;;;;;;;8.60;7.83;;;9.90;99.90;;;;;;5417276;26;20486;-62
2024/04/17 07:48:26;;;;;;;7.40;6.80;;;9.90;99.90;;;;;;5416542;26;20521;-62
2024/04/17 07:50:51;;;;;;;8.50;7.80;;;9.90;99.90;;;;;;5416699;26;20456;-62
2024/04/17 07:53:17;;;;;;;7.27;6.60;;;9.90;99.90;;;;;;5415350;26;20998;-62
2024/04/17 07:55:43;;;;;;;6.50;5.90;;;9.90;99.90;;;;;;5415458;26;20438;-62
2024/04/17 07:58:09;;;;;;;6.80;6.27;;;9.80;99.90;;;;;;5416727;26;20236;-62
2024/04/17 08:00:39;;;;;;;7.17;5.63;;;9.80;99.90;;;;;;5416182;26;20282;-62
2024/04/17 08:03:05;;;;;;;5.20;4.80;;;9.80;99.90;;;;;;5417274;26;20485;-61
2024/04/17 08:05:32;;;;;;;6.37;5.77;;;9.80;99.90;;;;;;5415893;26;20532;-61
2024/04/17 08:07:58;;;;;;;6.57;6.03;;;9.80;99.90;;;;;;5416049;26;20441;-61
2024/04/17 08:10:24;;;;;;;9.17;5.90;;;9.80;99.90;;;;;;5414285;26;20791;-61
2024/04/17 08:12:52;;;;;;;7.03;6.43;;;9.80;99.90;;;;;;5416362;26;20508;-61
2024/04/17 08:15:20;;;;;;;7.00;6.40;;;9.80;99.90;;;;;;5416767;26;20742;-62
2024/04/17 08:17:47;;;;;;;7.90;7.17;;;9.80;99.90;;;;;;5417184;26;20574;-61
2024/04/17 08:20:12;;;;;;;8.70;7.90;;;9.80;99.90;;;;;;5452985;26;20977;-62
2024/04/17 08:22:38;;;;;;;9.50;8.67;;;9.80;99.90;;;;;;5451400;26;20513;-61
2024/04/17 08:25:05;;;;;;;9.10;8.23;;;9.80;99.90;;;;;;5452641;26;20257;-61
2024/04/17 08:27:31;;;;;;;9.00;8.10;;;9.90;99.90;;;;;;5419308;26;20447;-61
2024/04/17 08:29:56;;;;;;;8.07;7.57;;;9.90;99.90;;;;;;5452121;26;20657;-61
2024/04/17 08:32:22;;;;;;;7.93;7.23;;;10.00;99.90;;;;;;5452201;26;20551;-62
2024/04/17 08:34:48;;;;;;;7.43;6.60;;;10.00;99.90;;;;;;5451100;26;20233;-62
2024/04/17 08:37:13;;;;;;;6.80;6.23;;;10.00;99.90;;;;;;5452241;26;20689;-61
2024/04/17 08:39:39;;;;;;;8.60;7.80;;;10.10;99.90;;;;;;5451952;26;20233;-62
2024/04/17 08:42:06;;;;;;;7.67;6.70;;;10.10;99.90;;;;;;5451931;26;20228;-62
2024/04/17 08:44:40;;;;;;;10.07;9.27;;;10.10;99.90;;;;;;5390400;26;20310;-62
2024/04/17 08:47:08;;;;;;;7.27;6.50;;;10.10;99.90;;;;;;5452141;26;20437;-61
2024/04/17 08:49:36;;;;;;;7.10;6.37;;;10.00;99.90;;;;;;5451494;26;20502;-61
2024/04/17 08:52:03;;;;;;;9.00;8.30;;;10.00;99.90;;;;;;5452218;26;20997;-62
2024/04/17 08:54:29;;;;;;;7.60;6.30;;;10.00;99.90;;;;;;5451422;26;20442;-62
2024/04/17 08:56:56;;;;;;;7.20;6.60;;;10.00;99.90;;;;;;5452008;26;20443;-62
2024/04/17 08:59:21;;;;;;;7.10;6.60;;;10.00;99.90;;;;;;5451660;26;20572;-61
2024/04/17 09:01:49;;;;;;;7.10;6.50;;;10.00;99.90;;;;;;5451076;26;20844;-61
2024/04/17 09:04:19;;;;;;;8.23;7.40;;;10.00;99.90;;;;;;5421840;26;20251;-63
2024/04/17 09:06:45;;;;;;;7.67;7.20;;;10.00;99.90;;;;;;5454769;26;20549;-61
2024/04/17 09:09:13;;;;;;;7.53;6.83;;;9.90;99.90;;;;;;5454772;26;20775;-61
2024/04/17 09:11:40;;;;;;;6.50;6.00;;;10.00;99.90;;;;;;5422874;26;20770;-61
2024/04/17 09:14:06;;;;;;;7.90;7.30;;;10.00;99.90;;;;;;5455357;26;20517;-63
2024/04/17 09:16:32;;;;;;;7.13;6.43;;;10.00;99.90;;;;;;5422886;26;20558;-61
2024/04/17 09:18:59;;;;;;;7.80;7.10;;;10.00;99.90;;;;;;5436132;26;20281;-61
2024/04/17 09:21:24;;;;;;;7.00;6.50;;;10.00;99.90;;;;;;5419357;26;20219;-61
2024/04/17 09:23:50;;;;;;;7.77;7.17;;;10.00;99.90;;;;;;5418564;26;20527;-61
2024/04/17 09:26:18;;;;;;;7.90;7.10;;;10.00;99.90;;;;;;5419532;26;20706;-61
2024/04/17 09:28:44;;;;;;;6.90;6.40;;;10.10;99.90;;;;;;5418582;26;20285;-61
2024/04/17 09:31:11;;;;;;;7.67;6.80;;;10.10;99.90;;;;;;5418933;26;20449;-61
2024/04/17 09:33:47;;;;;;;7.70;7.20;;;10.10;99.90;;;;;;5386735;26;20515;-61
2024/04/17 09:36:14;;;;;;;6.67;6.13;;;10.10;99.90;;;;;;5419116;26;20436;-61
2024/04/17 09:38:40;;;;;;;7.17;6.67;;;10.10;99.90;;;;;;5387018;26;20977;-61
2024/04/17 09:41:08;;;;;;;8.07;7.47;;;10.10;99.90;;;;;;5419100;26;20854;-61
2024/04/17 09:43:42;;;;;;;7.97;7.37;;;10.20;99.90;;;;;;5418494;26;20550;-61
2024/04/17 09:46:09;;;;;;;8.10;7.50;;;10.20;99.90;;;;;;5419028;26;20800;-61
2024/04/17 09:48:41;;;;;;;7.07;6.53;;;10.20;99.90;;;;;;5418283;26;20989;-61
2024/04/17 09:51:09;;;;;;;6.03;5.63;;;10.20;99.90;;;;;;5419276;26;20815;-61
2024/04/17 09:53:37;;;;;;;6.10;5.70;;;10.20;99.90;;;;;;5418189;26;20550;-61
2024/04/17 09:56:04;;;;;;;4.70;4.40;;;10.20;99.90;;;;;;5418813;26;20437;-61
2024/04/17 09:58:34;;;;;;;5.03;4.73;;;10.20;99.90;;;;;;5387010;26;20501;-61
2024/04/17 10:01:05;;;;;;;8.33;5.40;;;10.20;99.90;;;;;;5418428;26;20439;-61
2024/04/17 10:03:32;;;;;;;4.97;4.67;;;10.20;99.90;;;;;;5418179;26;20447;-61
2024/04/17 10:06:01;;;;;;;5.47;5.17;;;10.20;99.90;;;;;;5418678;26;20481;-61
2024/04/17 10:08:35;;;;;;;5.57;5.17;;;10.20;99.90;;;;;;5418678;26;21073;-61
2024/04/17 10:11:05;;;;;;;3.80;3.60;;;10.30;99.90;;;;;;5387307;26;20484;-61
2024/04/17 10:13:31;;;;;;;3.27;3.07;;;10.30;99.90;;;;;;5417763;26;20495;-61
2024/04/17 10:15:57;;;;;;;4.50;4.20;;;10.40;99.90;;;;;;5417192;26;20441;-61
2024/04/17 10:18:24;;;;;;;5.70;5.30;;;10.50;99.90;;;;;;5418250;26;21112;-61
2024/04/17 10:20:53;;;;;;;3.70;3.40;;;10.50;99.90;;;;;;5418138;26;21182;-61
2024/04/17 10:23:20;;;;;;;3.20;3.00;;;10.60;99.90;;;;;;5418202;26;20960;-63
2024/04/17 10:25:47;;;;;;;4.20;4.00;;;10.50;99.90;;;;;;5382353;26;20497;-63
2024/04/17 10:28:14;;;;;;;3.80;3.40;;;10.50;99.90;;;;;;5382951;26;20553;-63
2024/04/17 10:30:40;;;;;;;4.73;4.43;;;10.50;99.90;;;;;;5382292;26;20477;-61
2024/04/17 10:33:25;;;;;;;4.07;3.80;;;10.60;99.90;;;;;;5382722;26;20426;-61
2024/04/17 10:35:52;;;;;;;4.03;3.90;;;10.70;99.90;;;;;;5382146;26;20486;-61
2024/04/17 10:38:18;;;;;;;5.70;4.10;;;10.70;99.90;;;;;;5382918;26;20447;-61
2024/04/17 10:40:47;;;;;;;3.03;2.93;;;10.80;99.90;;;;;;5382003;26;20442;-61
2024/04/17 10:43:13;;;;;;;3.13;3.00;;;10.80;99.90;;;;;;5382793;26;20743;-61
2024/04/17 10:45:46;;;;;;;3.10;2.90;;;10.90;99.90;;;;;;5361747;26;20454;-61
2024/04/17 10:48:15;;;;;;;3.40;3.20;;;11.00;99.90;;;;;;5417713;26;20517;-61
2024/04/17 10:50:44;;;;;;;2.40;2.30;;;11.10;99.90;;;;;;5386023;26;20435;-61
2024/04/17 10:53:11;;;;;;;3.33;2.87;;;11.30;99.90;;;;;;5386551;26;20484;-61
2024/04/17 10:55:36;;;;;;;3.60;2.90;;;11.50;99.90;;;;;;5416884;26;20433;-61
2024/04/17 10:58:04;;;;;;;3.13;2.93;;;11.70;99.90;;;;;;5417860;26;20432;-61
2024/04/17 11:00:30;;;;;;;3.47;3.30;;;11.90;99.90;;;;;;5417243;26;20220;-61
2024/04/17 11:02:56;;;;;;;3.33;3.10;;;12.00;99.90;;;;;;5416678;26;20495;-61
2024/04/17 11:05:25;;;;;;;3.63;3.33;;;12.20;99.90;;;;;;5386452;26;20484;-61
2024/04/17 11:07:53;;;;;;;3.10;2.90;;;12.30;99.90;;;;;;5385838;26;20459;-61
2024/04/17 11:10:20;;;;;;;4.00;3.13;;;12.40;99.90;;;;;;5417743;26;20466;-61
2024/04/17 11:12:46;;;;;;;3.10;2.90;;;12.40;99.90;;;;;;5417153;26;20478;-61
2024/04/17 11:15:12;;;;;;;2.60;2.50;;;12.40;99.90;;;;;;5417365;26;21012;-61
2024/04/17 11:17:38;;;;;;;2.87;2.77;;;12.30;99.90;;;;;;5416909;26;20449;-61
2024/04/17 11:20:05;;;;;;;2.73;2.63;;;12.30;99.90;;;;;;5417552;26;20283;-61
2024/04/17 11:22:34;;;;;;;3.43;3.30;;;12.20;99.90;;;;;;5417630;26;20427;-61
2024/04/17 11:25:03;;;;;;;3.40;3.00;;;12.30;99.90;;;;;;5417657;26;20439;-61
2024/04/17 11:27:29;;;;;;;3.40;3.00;;;12.30;99.90;;;;;;5385855;26;20438;-61
2024/04/17 11:29:54;;;;;;;3.40;3.13;;;12.40;99.90;;;;;;5416935;26;20962;-61
2024/04/17 11:32:20;;;;;;;3.70;3.37;;;12.50;99.90;;;;;;5417963;26;20266;-61
2024/04/17 11:34:46;;;;;;;2.83;2.73;;;12.60;99.90;;;;;;5385371;26;20308;-61
2024/04/17 11:37:13;;;;;;;2.93;2.83;;;12.60;99.90;;;;;;5417064;26;20592;-61
2024/04/17 11:39:39;;;;;;;3.90;3.60;;;12.60;99.90;;;;;;5415388;26;20288;-61
2024/04/17 11:42:11;;;;;;;2.87;2.53;;;12.70;99.90;;;;;;5356047;26;20453;-61
2024/04/17 11:44:41;;;;;;;2.87;2.60;;;12.70;99.90;;;;;;5416687;26;20484;-61
2024/04/17 11:47:14;;;;;;;2.90;2.70;;;12.70;99.90;;;;;;5417255;26;20436;-61
2024/04/17 11:49:41;;;;;;;2.70;2.50;;;12.60;99.90;;;;;;5416415;26;20513;-61
2024/04/17 11:52:11;;;;;;;3.37;3.10;;;12.60;99.90;;;;;;5417130;26;20555;-61
2024/04/17 11:54:37;;;;;;;2.77;2.57;;;12.60;99.90;;;;;;5385031;26;20440;-61
2024/04/17 11:57:04;;;;;;;2.90;2.70;;;12.70;99.90;;;;;;5417275;26;20488;-61
2024/04/17 11:59:30;;;;;;;4.17;2.80;;;12.80;99.90;;;;;;5386421;26;20215;-61
2024/04/17 12:01:56;;;;;;;3.90;3.70;;;12.90;99.90;;;;;;5416219;26;20489;-61
2024/04/17 12:04:22;;;;;;;3.20;2.90;;;13.10;99.90;;;;;;5417078;26;20219;-61
2024/04/17 12:06:48;;;;;;;3.33;3.00;;;13.30;99.90;;;;;;5384997;26;20294;-61
2024/04/17 12:09:14;;;;;;;4.20;3.40;;;13.50;99.80;;;;;;5385786;26;20594;-61
2024/04/17 12:11:40;;;;;;;3.00;2.90;;;13.70;99.90;;;;;;5416205;26;20980;-61
2024/04/17 12:14:06;;;;;;;3.27;3.10;;;13.80;98.00;;;;;;5416810;26;20442;-61
2024/04/17 12:16:32;;;;;;;3.23;2.93;;;13.80;96.10;;;;;;5416860;26;20335;-61
2024/04/17 12:18:57;;;;;;;2.87;2.77;;;13.80;95.80;;;;;;5435005;26;20451;-61
2024/04/17 12:21:23;;;;;;;3.13;2.93;;;13.60;95.10;;;;;;5452724;26;20228;-61
2024/04/17 12:23:51;;;;;;;4.40;4.17;;;13.30;94.30;;;;;;5452069;26;20222;-61
2024/04/17 12:29:02;;;;;;;4.13;3.90;;;12.90;93.90;;;;;;5451772;26;20477;-61
2024/04/17 12:31:28;;;;;;;3.67;3.47;;;12.80;95.80;;;;;;5452149;26;20499;-62
2024/04/17 12:33:53;;;;;;;3.83;3.63;;;12.70;96.50;;;;;;5451536;26;20434;-63
2024/04/17 12:36:19;;;;;;;3.03;2.93;;;12.60;96.20;;;;;;5420691;26;20241;-61
2024/04/17 12:38:45;;;;;;;3.80;3.50;;;12.50;96.00;;;;;;5450549;26;20214;-61
2024/04/17 12:41:11;;;;;;;3.40;2.93;;;12.40;96.20;;;;;;5452377;26;20275;-61
2024/04/17 12:43:37;;;;;;;3.73;3.53;;;12.30;97.00;;;;;;5452290;26;20824;-61